Time;durP1;ratioP1;P1;durP2;ratioP2;P2;SDS_P1;SDS_P2;PMS_P1;PMS_P2;Temp;Humidity;BMP_temperature;BMP_pressure;BME280_temperature;BME280_humidity;BME280_pressure;Samples;Min_cycle;Max_cycle;Signal;HPM_P1;HPM_P2
2022/05/12 00:02:09;;;;;;;13.90;9.53;;;15.30;98.20;;;;;;5108883;28;20204;-58
2022/05/12 00:04:36;;;;;;;12.47;8.87;;;15.20;98.20;;;;;;5097159;27;20411;-58
2022/05/12 00:07:03;;;;;;;10.63;8.30;;;15.10;98.50;;;;;;5110067;27;20507;-58
2022/05/12 00:09:29;;;;;;;12.00;8.40;;;15.10;98.90;;;;;;5115674;27;20517;-59
2022/05/12 00:11:55;;;;;;;15.10;8.03;;;15.10;98.90;;;;;;5108472;28;20466;-59
2022/05/12 00:14:21;;;;;;;19.23;8.70;;;15.10;98.90;;;;;;5108373;28;20423;-59
2022/05/12 00:16:48;;;;;;;9.33;7.40;;;15.00;99.00;;;;;;5109824;28;20453;-59
2022/05/12 00:19:13;;;;;;;10.10;8.20;;;15.00;99.10;;;;;;5101963;27;20427;-59
2022/05/12 00:21:39;;;;;;;11.57;8.30;;;15.00;99.00;;;;;;5107499;28;20553;-58
2022/05/12 00:24:06;;;;;;;13.70;8.10;;;15.00;99.10;;;;;;5109269;28;20260;-59
2022/05/12 00:26:34;;;;;;;9.17;8.17;;;15.00;99.30;;;;;;5105181;28;20260;-59
2022/05/12 00:29:05;;;;;;;15.30;7.80;;;15.00;99.60;;;;;;5110081;27;20434;-58
2022/05/12 00:31:32;;;;;;;11.30;8.50;;;14.90;99.60;;;;;;5107057;28;20442;-59
2022/05/12 00:33:58;;;;;;;10.40;8.10;;;14.90;99.80;;;;;;5108737;27;20441;-59
2022/05/12 00:36:24;;;;;;;15.20;7.60;;;14.90;99.90;;;;;;5098609;28;21089;-59
2022/05/12 00:38:50;;;;;;;8.93;6.13;;;14.90;98.90;;;;;;5112642;27;20169;-59
2022/05/12 00:41:15;;;;;;;6.80;6.10;;;14.80;96.50;;;;;;5104432;27;20209;-58
2022/05/12 00:43:47;;;;;;;10.40;8.00;;;14.80;95.80;;;;;;5105021;28;20692;-59
2022/05/12 00:46:19;;;;;;;10.23;7.63;;;14.80;95.90;;;;;;5107530;28;20256;-59
2022/05/12 00:48:46;;;;;;;9.33;7.67;;;14.80;97.60;;;;;;5119197;27;20490;-58
2022/05/12 00:51:18;;;;;;;13.63;7.90;;;14.80;98.80;;;;;;5104696;28;21164;-58
2022/05/12 00:53:46;;;;;;;10.90;7.90;;;14.70;99.30;;;;;;5107847;28;20426;-58
2022/05/12 00:56:16;;;;;;;10.53;7.90;;;14.70;99.80;;;;;;5107505;28;20410;-57
2022/05/12 00:58:42;;;;;;;11.37;8.43;;;14.60;99.90;;;;;;5107430;27;20934;-59
2022/05/12 01:01:10;;;;;;;8.87;7.97;;;14.60;99.90;;;;;;5107559;28;20490;-58
2022/05/12 01:03:39;;;;;;;12.40;8.40;;;14.60;99.90;;;;;;5113513;27;20441;-59
2022/05/12 01:06:06;;;;;;;10.83;8.00;;;14.50;99.90;;;;;;5101600;27;20934;-58
2022/05/12 01:08:33;;;;;;;10.30;8.30;;;14.50;99.90;;;;;;5105173;28;20422;-59
2022/05/12 01:11:04;;;;;;;12.10;9.13;;;14.40;99.90;;;;;;5106582;28;20477;-58
2022/05/12 01:13:31;;;;;;;11.97;8.67;;;14.40;99.90;;;;;;5091365;28;20419;-58
2022/05/12 01:16:00;;;;;;;13.43;7.90;;;14.40;99.90;;;;;;5114232;27;20428;-58
2022/05/12 01:18:27;;;;;;;9.63;8.43;;;14.40;99.90;;;;;;5110456;27;20427;-57
2022/05/12 01:20:54;;;;;;;11.53;9.30;;;14.30;99.90;;;;;;5101129;28;20467;-57
2022/05/12 01:23:25;;;;;;;9.33;7.23;;;14.30;99.90;;;;;;5107946;28;20433;-58
2022/05/12 01:26:02;;;;;;;11.20;7.33;;;14.30;99.90;;;;;;5084254;28;20425;-58
2022/05/12 01:28:28;;;;;;;9.00;7.40;;;14.30;99.90;;;;;;5099820;28;20957;-57
2022/05/12 01:30:54;;;;;;;10.40;7.60;;;14.30;99.90;;;;;;5102652;28;20450;-58
2022/05/12 01:33:21;;;;;;;10.37;8.30;;;14.20;99.90;;;;;;5097431;28;20427;-59
2022/05/12 01:35:46;;;;;;;13.03;8.97;;;14.10;99.90;;;;;;5109937;28;20385;-59
2022/05/12 01:38:13;;;;;;;14.53;9.07;;;14.00;99.90;;;;;;5111818;27;20693;-57
2022/05/12 01:40:40;;;;;;;11.00;8.80;;;14.00;99.90;;;;;;5107977;28;20254;-58
2022/05/12 01:43:06;;;;;;;12.57;8.83;;;14.00;99.90;;;;;;5103874;28;20483;-58
2022/05/12 01:45:32;;;;;;;12.50;8.90;;;14.00;99.90;;;;;;5106362;27;20411;-58
2022/05/12 01:47:58;;;;;;;12.63;8.80;;;14.00;99.90;;;;;;5103590;27;20468;-59
2022/05/12 01:50:24;;;;;;;10.10;7.87;;;14.00;99.90;;;;;;5106098;28;20200;-58
2022/05/12 01:52:50;;;;;;;12.13;8.50;;;14.00;99.90;;;;;;5100284;27;20188;-58
2022/05/12 01:55:19;;;;;;;10.93;8.27;;;14.00;99.90;;;;;;5109712;28;20434;-58
2022/05/12 01:57:45;;;;;;;16.90;9.30;;;14.00;99.90;;;;;;5088646;28;20967;-57
2022/05/12 02:00:14;;;;;;;10.70;8.30;;;14.00;99.90;;;;;;5103240;28;20547;-59
2022/05/12 02:02:41;;;;;;;9.60;8.20;;;13.90;99.90;;;;;;5110613;27;20413;-58
2022/05/12 02:05:09;;;;;;;9.73;8.70;;;13.90;99.90;;;;;;5111315;28;20932;-58
2022/05/12 02:07:37;;;;;;;10.57;8.20;;;13.90;99.90;;;;;;5090404;28;20426;-58
2022/05/12 02:10:05;;;;;;;9.73;8.53;;;13.90;99.90;;;;;;5110302;27;20949;-58
2022/05/12 02:12:31;;;;;;;17.00;8.90;;;13.90;99.90;;;;;;5095461;28;20850;-58
2022/05/12 02:14:57;;;;;;;12.17;8.07;;;13.90;99.90;;;;;;5091179;28;20513;-58
2022/05/12 02:17:22;;;;;;;14.10;9.00;;;13.80;99.90;;;;;;5113772;27;20315;-59
2022/05/12 02:19:48;;;;;;;10.83;8.20;;;13.80;99.90;;;;;;5106283;28;20185;-59
2022/05/12 02:22:13;;;;;;;14.10;8.47;;;13.80;99.90;;;;;;5112135;28;20197;-58
2022/05/12 02:24:39;;;;;;;14.40;9.40;;;13.70;99.90;;;;;;5099749;28;20568;-59
2022/05/12 02:27:05;;;;;;;11.40;8.87;;;13.70;99.90;;;;;;5111577;27;20184;-58
2022/05/12 02:29:31;;;;;;;12.40;8.20;;;13.70;99.90;;;;;;5106987;27;20225;-59
2022/05/12 02:31:57;;;;;;;11.90;8.73;;;13.60;99.90;;;;;;5111191;28;20454;-57
2022/05/12 02:34:22;;;;;;;11.17;8.33;;;13.60;99.90;;;;;;5112201;27;20678;-58
2022/05/12 02:36:59;;;;;;;10.83;8.30;;;13.70;99.90;;;;;;5111940;27;20173;-58
2022/05/12 02:39:30;;;;;;;19.63;7.93;;;13.70;99.90;;;;;;5114453;27;20230;-58
2022/05/12 02:41:56;;;;;;;9.90;8.20;;;13.70;99.90;;;;;;5108347;28;20461;-58
2022/05/12 02:44:22;;;;;;;9.37;8.20;;;13.70;99.90;;;;;;5102815;28;21085;-58
2022/05/12 02:46:47;;;;;;;10.30;7.23;;;13.70;99.90;;;;;;5110037;28;20204;-58
2022/05/12 02:49:13;;;;;;;11.37;7.87;;;13.70;99.90;;;;;;5116082;27;20165;-58
2022/05/12 02:51:39;;;;;;;12.13;7.57;;;13.70;99.90;;;;;;5111249;28;20216;-58
2022/05/12 02:54:04;;;;;;;13.73;9.00;;;13.60;99.90;;;;;;5111452;28;20716;-59
2022/05/12 02:56:30;;;;;;;12.87;7.90;;;13.60;99.90;;;;;;5109187;28;21025;-58
2022/05/12 02:58:56;;;;;;;8.90;7.73;;;13.60;99.90;;;;;;5107133;27;20625;-58
2022/05/12 03:01:21;;;;;;;10.67;8.60;;;13.50;99.90;;;;;;5105768;28;20288;-59
2022/05/12 03:03:47;;;;;;;14.53;8.10;;;13.50;99.90;;;;;;5109702;27;20169;-59
2022/05/12 03:06:13;;;;;;;12.07;7.50;;;13.40;99.90;;;;;;5099521;28;20204;-58
2022/05/12 03:08:42;;;;;;;8.80;7.73;;;13.40;99.90;;;;;;5108786;27;20180;-58
2022/05/12 03:11:08;;;;;;;11.10;7.83;;;13.40;99.90;;;;;;5103595;28;20228;-57
2022/05/12 03:13:34;;;;;;;9.50;7.40;;;13.30;99.90;;;;;;5108073;28;20439;-59
2022/05/12 03:16:00;;;;;;;11.90;7.80;;;13.30;99.90;;;;;;5103519;28;20425;-58
2022/05/12 03:18:26;;;;;;;8.57;7.53;;;13.30;99.90;;;;;;5111953;27;20431;-59
2022/05/12 03:20:52;;;;;;;14.00;8.07;;;13.30;99.90;;;;;;5109504;28;20205;-59
2022/05/12 03:23:21;;;;;;;11.07;7.80;;;13.30;99.90;;;;;;5112114;28;20192;-59
2022/05/12 03:25:48;;;;;;;14.77;8.40;;;13.30;99.90;;;;;;5107719;28;20173;-59
2022/05/12 03:28:14;;;;;;;11.17;7.67;;;13.30;99.90;;;;;;5114696;27;20506;-58
2022/05/12 03:30:42;;;;;;;12.20;7.50;;;13.20;99.90;;;;;;5111001;28;20521;-59
2022/05/12 03:33:09;;;;;;;9.20;7.00;;;13.20;99.90;;;;;;5100964;27;20609;-58
2022/05/12 03:35:36;;;;;;;12.77;8.03;;;13.20;99.90;;;;;;5104845;28;20930;-59
2022/05/12 03:38:02;;;;;;;10.90;9.17;;;13.10;99.90;;;;;;5102558;27;20507;-59
2022/05/12 03:40:30;;;;;;;10.33;8.30;;;13.10;99.90;;;;;;5106201;28;20550;-59
2022/05/12 03:42:59;;;;;;;11.83;9.00;;;13.00;99.90;;;;;;5098078;28;21030;-59
2022/05/12 03:45:29;;;;;;;17.03;8.67;;;13.00;99.90;;;;;;5108883;28;22277;-59
2022/05/12 03:47:58;;;;;;;10.47;9.33;;;13.00;99.90;;;;;;5105600;28;20414;-58
2022/05/12 03:50:27;;;;;;;13.10;10.10;;;12.90;99.90;;;;;;5109876;27;20472;-59
2022/05/12 03:52:54;;;;;;;13.10;8.60;;;13.00;99.90;;;;;;5110862;28;20431;-59
2022/05/12 03:55:22;;;;;;;10.50;9.03;;;13.00;99.90;;;;;;5108384;28;20427;-58
2022/05/12 03:57:53;;;;;;;12.10;8.10;;;13.00;99.90;;;;;;5111462;27;20786;-58
2022/05/12 04:00:23;;;;;;;13.00;8.17;;;13.00;99.90;;;;;;5109138;28;20487;-58
2022/05/12 04:02:49;;;;;;;13.97;8.50;;;13.00;99.90;;;;;;5108385;28;20458;-58
2022/05/12 04:05:18;;;;;;;11.60;8.17;;;13.00;99.90;;;;;;5096345;27;20443;-59
2022/05/12 04:07:44;;;;;;;9.00;6.90;;;13.00;99.90;;;;;;5095462;27;20193;-54
2022/05/12 04:10:12;;;;;;;7.40;6.60;;;13.00;99.90;;;;;;5100359;28;20427;-54
2022/05/12 04:12:38;;;;;;;12.60;8.13;;;13.10;99.90;;;;;;5105488;27;20984;-54
2022/05/12 04:15:04;;;;;;;10.87;7.70;;;13.20;99.90;;;;;;5096864;27;20423;-53
2022/05/12 04:17:31;;;;;;;12.40;8.50;;;13.20;99.90;;;;;;5094599;28;20202;-53
2022/05/12 04:20:00;;;;;;;10.00;8.30;;;13.20;99.90;;;;;;5094256;28;20427;-58
2022/05/12 04:22:26;;;;;;;12.10;8.70;;;13.20;99.90;;;;;;5097444;27;20426;-59
2022/05/12 04:24:51;;;;;;;11.10;9.00;;;13.20;99.90;;;;;;5076865;27;20918;-59
2022/05/12 04:27:17;;;;;;;8.97;8.00;;;13.10;99.90;;;;;;5097394;27;20207;-59
2022/05/12 04:29:43;;;;;;;11.23;7.63;;;13.10;99.90;;;;;;5095463;28;21404;-59
2022/05/12 04:32:10;;;;;;;10.83;7.93;;;13.00;99.90;;;;;;5096598;28;20279;-60
2022/05/12 04:37:32;;;;;;;10.33;8.60;;;13.00;99.90;;;;;;5100373;28;21031;-60
2022/05/12 04:40:16;;;;;;;10.37;8.30;;;13.00;99.90;;;;;;5093019;27;20434;-58
2022/05/12 04:42:43;;;;;;;10.87;8.70;;;13.00;99.90;;;;;;5101964;27;20472;-58
2022/05/12 04:45:10;;;;;;;9.10;8.00;;;13.00;99.90;;;;;;5093379;28;20423;-58
2022/05/12 04:47:38;;;;;;;10.10;8.17;;;13.00;99.90;;;;;;5070114;28;20463;-60
2022/05/12 04:50:06;;;;;;;14.93;8.20;;;13.00;99.90;;;;;;5097527;27;20446;-59
2022/05/12 04:52:32;;;;;;;14.63;8.50;;;13.10;99.90;;;;;;5098951;28;20430;-60
2022/05/12 04:54:58;;;;;;;9.57;8.40;;;13.10;99.90;;;;;;5078199;27;20435;-60
2022/05/12 04:57:24;;;;;;;16.20;8.90;;;13.10;99.90;;;;;;5101185;27;20166;-57
2022/05/12 04:59:51;;;;;;;20.13;9.03;;;13.20;99.90;;;;;;5100659;27;20173;-59
2022/05/12 05:02:17;;;;;;;15.07;8.50;;;13.20;99.90;;;;;;5082433;28;20794;-59
2022/05/12 05:04:43;;;;;;;13.50;9.10;;;13.20;99.90;;;;;;5093348;28;20435;-59
2022/05/12 05:07:10;;;;;;;13.23;9.07;;;13.30;99.90;;;;;;5093551;28;20798;-58
2022/05/12 05:09:37;;;;;;;10.83;8.57;;;13.30;99.90;;;;;;5101858;28;20430;-59
2022/05/12 05:12:03;;;;;;;12.10;9.20;;;13.30;99.90;;;;;;5096973;27;20439;-59
2022/05/12 05:14:29;;;;;;;16.93;8.27;;;13.40;99.90;;;;;;5099337;28;20454;-57
2022/05/12 05:16:54;;;;;;;10.57;9.00;;;13.50;99.90;;;;;;5094641;28;20531;-60
2022/05/12 05:19:20;;;;;;;13.90;8.80;;;13.50;99.90;;;;;;5101485;28;20165;-59
2022/05/12 05:21:46;;;;;;;14.30;9.07;;;13.60;99.90;;;;;;5101385;28;20855;-58
2022/05/12 05:24:11;;;;;;;11.67;9.33;;;13.60;99.90;;;;;;5100962;28;20639;-58
2022/05/12 05:26:37;;;;;;;12.40;8.30;;;13.70;99.90;;;;;;5103109;28;20998;-58
2022/05/12 05:29:03;;;;;;;11.97;8.30;;;13.70;99.90;;;;;;5102784;28;20164;-58
2022/05/12 05:31:29;;;;;;;11.70;8.27;;;13.80;99.90;;;;;;5103425;28;20276;-59
2022/05/12 05:33:55;;;;;;;17.53;10.53;;;13.90;99.90;;;;;;5105172;28;20173;-59
2022/05/12 05:36:20;;;;;;;14.87;8.97;;;14.00;99.90;;;;;;5103541;28;20503;-59
2022/05/12 05:38:47;;;;;;;19.40;8.47;;;14.00;99.90;;;;;;5102858;28;20180;-60
2022/05/12 05:41:13;;;;;;;12.60;7.77;;;14.10;99.90;;;;;;5103664;28;20205;-59
2022/05/12 05:43:39;;;;;;;15.83;8.90;;;14.20;99.90;;;;;;5100782;28;20586;-58
2022/05/12 05:46:05;;;;;;;11.37;8.73;;;14.30;99.90;;;;;;5098710;28;20565;-58
2022/05/12 05:48:31;;;;;;;10.53;9.37;;;14.40;99.90;;;;;;5098956;28;20419;-60
2022/05/12 05:53:42;;;;;;;13.30;8.63;;;14.50;99.90;;;;;;5100707;28;20970;-59
2022/05/12 05:56:17;;;;;;;15.33;9.30;;;14.70;99.90;;;;;;5078614;28;20460;-60
2022/05/12 05:58:44;;;;;;;15.23;8.90;;;14.80;99.90;;;;;;5099585;28;20426;-60
2022/05/12 06:01:10;;;;;;;13.60;8.70;;;15.00;99.90;;;;;;5106706;28;20488;-61
2022/05/12 06:03:37;;;;;;;11.57;7.87;;;15.20;99.90;;;;;;5082840;28;20804;-60
2022/05/12 06:06:03;;;;;;;10.07;7.63;;;15.30;99.90;;;;;;5103161;28;20957;-59
2022/05/12 06:08:28;;;;;;;17.70;7.60;;;15.50;99.90;;;;;;5104325;28;20541;-58
2022/05/12 06:10:55;;;;;;;20.23;8.10;;;15.70;99.90;;;;;;5096012;28;20810;-56
2022/05/12 06:13:20;;;;;;;21.13;7.13;;;15.90;99.90;;;;;;5085444;28;20292;-60
2022/05/12 06:15:46;;;;;;;16.57;6.20;;;16.10;98.60;;;;;;5099227;28;20510;-61
2022/05/12 06:18:17;;;;;;;15.80;6.70;;;16.60;93.80;;;;;;5099600;28;20177;-61
2022/05/12 06:20:45;;;;;;;10.60;6.60;;;17.00;89.80;;;;;;5102254;28;20701;-60
2022/05/12 06:23:12;;;;;;;9.60;4.40;;;17.20;89.30;;;;;;5099787;28;20423;-60
2022/05/12 06:25:38;;;;;;;5.50;3.93;;;17.40;77.60;;;;;;5108245;28;20426;-59
2022/05/12 06:28:05;;;;;;;8.03;4.60;;;17.50;68.90;;;;;;5108155;28;20422;-60
2022/05/12 06:30:31;;;;;;;6.10;3.83;;;17.60;67.50;;;;;;5106972;28;20447;-59
2022/05/12 06:32:57;;;;;;;7.43;4.13;;;17.80;64.60;;;;;;5105897;28;20430;-60
2022/05/12 06:35:25;;;;;;;15.37;5.10;;;18.00;62.90;;;;;;5106209;28;20415;-55
2022/05/12 06:37:51;;;;;;;6.27;4.47;;;18.20;61.40;;;;;;5102280;28;20484;-57
2022/05/12 06:40:19;;;;;;;7.73;4.17;;;18.40;60.70;;;;;;5103406;27;20834;-55
2022/05/12 06:42:45;;;;;;;7.33;4.20;;;18.50;58.20;;;;;;5106917;28;20475;-55
2022/05/12 06:45:13;;;;;;;7.83;5.20;;;18.70;58.50;;;;;;5104506;28;20910;-55
2022/05/12 06:47:46;;;;;;;6.23;4.83;;;18.80;58.50;;;;;;5111398;28;20324;-55
2022/05/12 06:50:12;;;;;;;10.70;4.10;;;18.90;57.20;;;;;;5105929;28;21056;-56
2022/05/12 06:52:37;;;;;;;5.07;4.10;;;18.90;57.30;;;;;;5101181;28;20435;-55
2022/05/12 06:55:03;;;;;;;5.03;4.20;;;19.00;57.10;;;;;;5104815;28;20768;-59
2022/05/12 06:57:30;;;;;;;13.10;4.27;;;19.00;57.10;;;;;;5106510;28;20251;-57
2022/05/12 06:59:57;;;;;;;9.80;4.53;;;19.00;56.40;;;;;;5100029;28;20431;-58
2022/05/12 07:02:25;;;;;;;4.83;3.70;;;19.00;56.00;;;;;;5110955;28;20454;-58
2022/05/12 07:04:52;;;;;;;8.30;4.33;;;19.00;56.20;;;;;;5107525;28;20509;-61
2022/05/12 07:07:20;;;;;;;12.90;4.80;;;19.00;56.20;;;;;;5102756;28;20423;-59
2022/05/12 07:09:46;;;;;;;7.27;4.60;;;19.00;55.90;;;;;;5103187;28;22690;-59
2022/05/12 07:12:13;;;;;;;9.63;4.43;;;19.10;55.20;;;;;;5107765;28;20455;-59
2022/05/12 07:14:39;;;;;;;6.57;4.83;;;19.20;55.20;;;;;;5105262;28;20509;-57
2022/05/12 07:17:05;;;;;;;12.83;4.80;;;19.30;55.50;;;;;;5103995;28;20571;-60
2022/05/12 07:19:33;;;;;;;7.93;4.43;;;19.30;55.80;;;;;;5108435;28;20494;-60
2022/05/12 07:27:28;;;;;;;9.37;4.67;;;19.60;55.40;;;;;;5102429;28;20442;-61
2022/05/12 07:29:54;;;;;;;7.50;4.17;;;19.70;56.10;;;;;;5095843;28;20534;-60
2022/05/12 07:32:20;;;;;;;7.70;4.50;;;19.80;55.90;;;;;;5105454;28;20220;-60
2022/05/12 07:34:46;;;;;;;7.70;4.80;;;19.90;55.30;;;;;;5082523;28;20614;-60
2022/05/12 07:37:12;;;;;;;6.93;4.43;;;19.90;55.20;;;;;;5104415;28;20506;-61
2022/05/12 07:39:37;;;;;;;4.87;4.37;;;20.00;54.80;;;;;;5108028;28;20268;-59
2022/05/12 07:42:04;;;;;;;6.20;4.53;;;20.10;54.80;;;;;;5108910;28;20219;-60
2022/05/12 07:44:34;;;;;;;14.63;4.37;;;20.10;54.50;;;;;;5105406;28;20579;-60
2022/05/12 07:47:06;;;;;;;9.10;4.40;;;20.10;54.70;;;;;;5102078;28;20435;-61
2022/05/12 07:49:35;;;;;;;10.03;4.90;;;20.10;55.10;;;;;;5103850;28;20483;-61
2022/05/12 07:52:02;;;;;;;6.73;4.23;;;20.30;55.10;;;;;;5105060;28;20516;-61
2022/05/12 07:54:28;;;;;;;12.13;4.73;;;20.40;54.80;;;;;;5106537;28;20609;-62
2022/05/12 07:56:53;;;;;;;9.10;4.37;;;20.40;54.30;;;;;;5105330;28;20448;-61
2022/05/12 07:59:19;;;;;;;11.60;4.97;;;20.50;54.60;;;;;;5103194;28;20181;-61
2022/05/12 08:01:45;;;;;;;8.93;4.40;;;20.60;54.40;;;;;;5098080;28;20204;-61
2022/05/12 08:04:12;;;;;;;7.13;4.93;;;20.70;54.40;;;;;;5105433;28;20184;-61
2022/05/12 08:06:40;;;;;;;7.10;4.37;;;20.70;53.60;;;;;;5103566;28;20434;-60
2022/05/12 08:09:06;;;;;;;7.00;4.40;;;20.70;53.40;;;;;;5106107;28;20419;-60
2022/05/12 08:11:32;;;;;;;7.73;4.60;;;20.80;54.10;;;;;;5099420;28;20478;-61
2022/05/12 08:13:58;;;;;;;6.43;4.20;;;20.90;54.30;;;;;;5104967;28;20212;-61
2022/05/12 08:16:23;;;;;;;7.07;4.67;;;20.90;53.90;;;;;;5080198;28;20218;-61
2022/05/12 08:18:50;;;;;;;6.27;4.17;;;20.90;53.20;;;;;;5105241;28;20862;-60
2022/05/12 08:21:17;;;;;;;8.03;4.67;;;20.90;53.30;;;;;;5103928;28;20229;-60
2022/05/12 08:23:43;;;;;;;5.17;4.63;;;20.90;53.50;;;;;;5102842;28;20426;-60
2022/05/12 08:26:09;;;;;;;9.07;4.50;;;20.80;54.30;;;;;;5107762;28;20434;-60
2022/05/12 08:28:37;;;;;;;5.30;4.80;;;20.80;54.40;;;;;;5109182;28;20447;-60
2022/05/12 08:31:04;;;;;;;7.30;4.00;;;20.90;54.90;;;;;;5110072;28;20516;-60
2022/05/12 08:33:29;;;;;;;6.13;4.50;;;21.00;54.00;;;;;;5107385;28;20441;-60
2022/05/12 08:35:55;;;;;;;9.07;5.23;;;21.00;55.10;;;;;;5108518;28;20423;-60
2022/05/12 08:38:21;;;;;;;8.20;5.00;;;21.00;54.50;;;;;;5104098;28;20260;-60
2022/05/12 08:41:24;;;;;;;11.00;5.27;;;21.10;53.70;;;;;;5088674;28;20220;-59
2022/05/12 08:44:03;;;;;;;5.00;4.27;;;21.20;54.10;;;;;;5094334;28;20434;-60
2022/05/12 08:46:54;;;;;;;7.90;4.80;;;21.30;53.70;;;;;;5108654;28;20434;-60
2022/05/12 08:49:27;;;;;;;10.43;4.93;;;21.50;53.20;;;;;;5109898;28;20415;-60
2022/05/12 08:52:24;;;;;;;9.60;4.57;;;21.60;54.10;;;;;;5107951;28;20447;-61
2022/05/12 08:55:00;;;;;;;9.20;4.50;;;21.60;54.30;;;;;;5106096;28;20419;-61
2022/05/12 08:57:35;;;;;;;10.20;4.57;;;21.60;52.90;;;;;;5087472;28;20469;-60
2022/05/12 09:00:06;;;;;;;9.70;4.90;;;21.60;52.90;;;;;;5087615;28;20429;-59
2022/05/12 09:02:52;;;;;;;8.20;4.43;;;21.50;54.10;;;;;;5102481;28;20495;-61
2022/05/12 09:05:25;;;;;;;7.50;4.63;;;21.50;53.20;;;;;;5095492;28;21052;-61
2022/05/12 09:08:04;;;;;;;14.30;4.87;;;21.40;53.00;;;;;;5107045;28;20923;-60
2022/05/12 09:10:59;;;;;;;6.60;5.03;;;21.40;53.10;;;;;;5105327;28;20446;-60
2022/05/12 09:13:52;;;;;;;15.50;5.10;;;21.40;53.00;;;;;;5093488;28;20412;-59
2022/05/12 09:16:25;;;;;;;5.80;4.83;;;21.50;53.80;;;;;;5088681;28;20512;-60
2022/05/12 09:18:53;;;;;;;10.20;4.37;;;21.50;53.40;;;;;;5103888;28;20784;-60
2022/05/12 09:21:24;;;;;;;11.20;5.80;;;21.60;53.30;;;;;;5107951;28;20501;-60
2022/05/12 09:23:50;;;;;;;13.17;5.30;;;21.80;54.70;;;;;;5107178;28;20419;-60
2022/05/12 09:26:30;;;;;;;8.83;5.87;;;21.90;53.50;;;;;;5107613;28;21012;-59
2022/05/12 09:29:19;;;;;;;8.00;5.40;;;22.10;52.80;;;;;;5104265;28;20427;-59
2022/05/12 09:31:57;;;;;;;7.60;5.07;;;22.30;52.90;;;;;;5092521;28;20554;-61
2022/05/12 09:34:26;;;;;;;10.03;5.63;;;22.40;52.20;;;;;;5106910;28;20438;-60
2022/05/12 09:36:52;;;;;;;6.93;5.27;;;22.50;52.10;;;;;;5107016;28;20819;-60
2022/05/12 09:39:32;;;;;;;8.80;5.07;;;22.40;52.30;;;;;;5104335;28;21014;-61
2022/05/12 09:41:58;;;;;;;6.83;5.63;;;22.50;52.10;;;;;;5095508;28;20510;-60
2022/05/12 09:44:27;;;;;;;6.23;5.40;;;22.50;52.00;;;;;;5097931;28;20520;-59
2022/05/12 09:46:58;;;;;;;8.40;5.50;;;22.50;51.50;;;;;;5102250;28;20554;-59
2022/05/12 09:49:31;;;;;;;6.10;5.00;;;22.40;52.00;;;;;;5101192;28;20419;-56
2022/05/12 09:51:57;;;;;;;7.00;5.20;;;22.30;52.60;;;;;;5100517;28;20450;-57
2022/05/12 09:54:29;;;;;;;8.23;4.93;;;22.20;52.10;;;;;;5100013;28;20843;-58
2022/05/12 09:57:12;;;;;;;9.23;6.10;;;22.30;52.50;;;;;;5105014;28;20256;-59
2022/05/12 09:59:40;;;;;;;8.60;5.43;;;22.40;52.20;;;;;;5109114;28;20503;-60
2022/05/12 10:08:21;;;;;;;11.53;5.37;;;22.60;52.10;;;;;;5103698;28;20844;-55
2022/05/12 10:10:54;;;;;;;9.20;5.47;;;22.70;52.20;;;;;;5105614;28;20442;-56
2022/05/12 10:13:45;;;;;;;10.77;5.60;;;22.90;52.00;;;;;;5108784;28;20870;-56
2022/05/12 10:16:16;;;;;;;8.10;5.10;;;23.00;51.60;;;;;;5102122;28;20431;-59
2022/05/12 10:18:45;;;;;;;8.37;5.17;;;23.00;51.30;;;;;;5099065;27;20496;-62
2022/05/12 10:21:17;;;;;;;6.33;5.13;;;23.10;51.90;;;;;;5105924;27;20455;-59
2022/05/12 10:23:59;;;;;;;6.63;4.80;;;23.30;52.30;;;;;;5106991;28;20427;-60
2022/05/12 10:26:40;;;;;;;7.30;5.57;;;23.40;51.90;;;;;;5107050;28;20423;-58
2022/05/12 10:29:09;;;;;;;12.40;4.83;;;23.60;52.20;;;;;;5102432;28;20918;-59
2022/05/12 10:32:00;;;;;;;7.13;5.20;;;23.80;52.20;;;;;;5107207;28;20458;-59
2022/05/12 10:34:47;;;;;;;10.53;5.77;;;23.90;51.00;;;;;;5103194;28;20426;-60
2022/05/12 10:37:28;;;;;;;8.37;5.20;;;24.10;50.20;;;;;;5109541;27;20434;-59
2022/05/12 10:40:26;;;;;;;12.27;5.90;;;24.20;50.50;;;;;;5102162;28;20426;-60
2022/05/12 10:43:23;;;;;;;8.90;5.00;;;24.30;49.00;;;;;;5107276;28;20462;-59
2022/05/12 10:46:14;;;;;;;7.50;4.60;;;24.50;49.80;;;;;;5100025;28;20488;-59
2022/05/12 10:49:41;;;;;;;8.00;4.77;;;24.70;48.70;;;;;;5105119;28;20496;-60
2022/05/12 10:52:39;;;;;;;6.40;4.70;;;24.90;48.70;;;;;;5014746;28;20454;-59
2022/05/12 10:55:28;;;;;;;9.00;5.20;;;25.10;47.20;;;;;;4996986;28;20461;-59
2022/05/12 10:58:06;;;;;;;5.17;4.53;;;25.00;47.10;;;;;;5108556;28;20423;-60
2022/05/12 11:00:52;;;;;;;8.00;5.37;;;25.00;47.20;;;;;;5107327;28;20465;-59
2022/05/12 11:03:32;;;;;;;14.87;4.70;;;25.10;49.20;;;;;;5103956;28;20422;-59
2022/05/12 11:06:02;;;;;;;12.43;4.83;;;25.20;46.70;;;;;;5101414;28;20426;-59
2022/05/12 11:08:43;;;;;;;5.77;5.03;;;25.20;46.80;;;;;;5101920;28;20419;-60
2022/05/12 11:11:15;;;;;;;7.10;4.80;;;25.20;46.00;;;;;;5103432;28;20448;-59
2022/05/12 11:14:04;;;;;;;12.70;5.30;;;25.00;46.70;;;;;;5103262;28;20588;-59
2022/05/12 11:16:43;;;;;;;11.23;5.00;;;25.00;46.40;;;;;;5094279;28;20431;-59
2022/05/12 11:19:12;;;;;;;7.60;5.10;;;25.10;46.90;;;;;;5101133;28;20434;-60
2022/05/12 11:21:51;;;;;;;9.30;5.27;;;25.40;46.00;;;;;;5102789;28;22444;-60
2022/05/12 11:24:21;;;;;;;8.00;4.77;;;25.50;45.70;;;;;;5095009;28;20422;-60
2022/05/12 11:27:07;;;;;;;7.80;4.83;;;25.70;45.80;;;;;;5096390;28;20483;-60
2022/05/12 11:29:52;;;;;;;8.77;5.60;;;25.80;45.70;;;;;;5101543;27;20426;-59
2022/05/12 11:32:37;;;;;;;5.47;4.90;;;26.00;46.00;;;;;;5101169;28;20533;-60
2022/05/12 11:35:10;;;;;;;6.10;5.00;;;26.10;45.00;;;;;;5101810;28;20460;-60
2022/05/12 11:37:42;;;;;;;5.70;4.50;;;25.80;45.40;;;;;;5099377;28;20442;-60
2022/05/12 11:40:09;;;;;;;11.73;5.27;;;25.50;45.30;;;;;;5098767;28;20426;-59
2022/05/12 11:46:31;;;;;;;6.00;4.80;;;24.90;46.30;;;;;;5102194;28;20797;-57
2022/05/12 11:49:01;;;;;;;10.53;5.00;;;25.10;46.70;;;;;;5099243;28;20574;-58
2022/05/12 11:51:55;;;;;;;8.93;5.20;;;25.30;46.40;;;;;;5098542;28;20477;-58
2022/05/12 11:54:30;;;;;;;7.53;5.50;;;25.20;45.80;;;;;;5099751;28;20427;-59
2022/05/12 11:56:58;;;;;;;5.13;4.73;;;25.30;46.20;;;;;;5097020;28;20423;-58
2022/05/12 11:59:30;;;;;;;12.23;5.10;;;25.40;46.10;;;;;;5097179;28;20431;-57
2022/05/12 12:02:23;;;;;;;6.07;4.90;;;25.40;45.30;;;;;;5099709;27;20480;-59
2022/05/12 12:04:51;;;;;;;7.53;4.53;;;25.30;45.80;;;;;;5099485;28;20439;-59
2022/05/12 12:07:37;;;;;;;8.73;4.97;;;25.60;45.90;;;;;;5102241;28;20626;-59
2022/05/12 12:10:09;;;;;;;5.50;4.83;;;25.80;45.10;;;;;;5084398;28;20910;-60
2022/05/12 12:12:42;;;;;;;8.03;5.00;;;26.10;45.80;;;;;;5098956;28;20419;-60
2022/05/12 12:15:23;;;;;;;9.50;5.67;;;26.20;44.70;;;;;;5097620;28;20460;-60
2022/05/12 12:17:49;;;;;;;9.53;5.37;;;26.30;44.50;;;;;;5097020;28;20763;-58
2022/05/12 12:20:30;;;;;;;11.63;4.73;;;26.40;44.30;;;;;;5097109;28;20461;-60
2022/05/12 12:23:06;;;;;;;5.90;4.63;;;26.70;44.50;;;;;;5098873;28;20449;-61
2022/05/12 12:25:54;;;;;;;5.43;4.93;;;27.00;44.50;;;;;;5095195;28;20427;-57
2022/05/12 12:28:41;;;;;;;5.70;4.80;;;27.30;45.00;;;;;;5097981;28;20449;-58
2022/05/12 12:31:20;;;;;;;6.17;4.00;;;27.30;41.80;;;;;;5101397;28;20438;-58
2022/05/12 12:34:18;;;;;;;8.67;4.87;;;27.30;42.10;;;;;;5094910;28;20442;-60
2022/05/12 12:36:50;;;;;;;5.47;4.77;;;27.20;42.20;;;;;;5101394;27;20525;-59
2022/05/12 12:39:55;;;;;;;6.03;4.77;;;27.00;42.70;;;;;;5104716;28;20425;-59
2022/05/12 12:42:27;;;;;;;8.73;4.50;;;27.00;43.50;;;;;;5100584;28;20519;-64
2022/05/12 12:44:56;;;;;;;7.27;4.80;;;27.20;42.70;;;;;;5099773;28;20435;-62
2022/05/12 12:47:35;;;;;;;7.03;4.50;;;27.30;41.90;;;;;;5101223;28;20180;-61
2022/05/12 12:50:16;;;;;;;5.57;4.40;;;27.40;41.70;;;;;;5101499;28;20425;-62
2022/05/12 12:52:44;;;;;;;7.97;4.80;;;27.10;42.30;;;;;;5094741;28;20187;-62
2022/05/12 12:58:40;;;;;;;7.20;4.60;;;26.80;42.40;;;;;;5099703;28;20187;-60
2022/05/12 13:01:19;;;;;;;8.50;4.57;;;26.80;41.90;;;;;;5102313;28;20205;-60
2022/05/12 13:03:49;;;;;;;7.53;5.00;;;26.90;41.90;;;;;;5099691;28;20418;-61
2022/05/12 13:06:24;;;;;;;7.80;4.40;;;27.10;42.80;;;;;;5097776;28;20173;-62
2022/05/12 13:09:06;;;;;;;9.37;5.00;;;27.30;42.70;;;;;;5081575;28;20195;-61
2022/05/12 13:11:36;;;;;;;11.57;4.87;;;27.60;40.80;;;;;;5101138;28;20338;-60
2022/05/12 13:14:02;;;;;;;5.03;4.53;;;27.80;40.40;;;;;;5100355;28;20238;-61
2022/05/12 13:16:33;;;;;;;7.93;4.60;;;27.80;41.00;;;;;;5098863;28;20204;-61
2022/05/12 13:18:59;;;;;;;12.33;5.00;;;27.60;40.20;;;;;;5098411;28;20188;-60
2022/05/12 13:21:36;;;;;;;8.23;4.77;;;27.40;40.50;;;;;;5099904;28;20196;-61
2022/05/12 13:24:11;;;;;;;7.23;4.70;;;27.20;41.20;;;;;;5096202;28;20508;-60